Time;durP1;ratioP1;P1;durP2;ratioP2;P2;SDS_P1;SDS_P2;PMS_P1;PMS_P2;Temp;Humidity;BMP_temperature;BMP_pressure;BME280_temperature;BME280_humidity;BME280_pressure;Samples;Min_cycle;Max_cycle;Signal;HPM_P1;HPM_P2
2022/09/16 00:00:50;;;;;;;8.35;1.80;;;;;;;20.32;69.82;99657.52;1720638;82;26121;-73
2022/09/16 00:03:19;;;;;;;6.90;1.72;;;;;;;20.27;70.57;99656.02;1711526;82;25773;-74
2022/09/16 00:05:50;;;;;;;7.95;1.98;;;;;;;20.23;70.56;99658.89;1710021;82;25876;-74
2022/09/16 00:08:20;;;;;;;14.40;2.40;;;;;;;20.18;70.94;99647.83;1722160;81;26212;-75
2022/09/16 00:10:47;;;;;;;6.53;1.95;;;;;;;20.17;70.70;99648.88;1670135;84;28430;-75
2022/09/16 00:13:14;;;;;;;12.15;1.90;;;;;;;20.18;70.74;99654.11;1687587;83;25837;-72
2022/09/16 00:15:43;;;;;;;11.30;1.98;;;;;;;20.22;71.36;99649.56;1727011;81;25772;-74
2022/09/16 00:18:11;;;;;;;8.65;1.82;;;;;;;20.20;71.20;99649.80;1746309;81;25833;-74
2022/09/16 00:20:50;;;;;;;4.75;1.67;;;;;;;20.22;71.64;99644.11;1687507;84;25737;-74
2022/09/16 00:23:18;;;;;;;5.62;1.55;;;;;;;20.17;71.43;99646.97;1691071;83;27397;-73
2022/09/16 00:25:53;;;;;;;6.87;2.42;;;;;;;20.19;71.52;99646.77;1720121;83;25767;-74
2022/09/16 00:28:22;;;;;;;8.58;1.95;;;;;;;20.19;71.14;99653.59;1744192;81;25703;-74
2022/09/16 00:30:49;;;;;;;11.90;1.72;;;;;;;20.17;72.21;99657.08;1739680;81;25810;-73
2022/09/16 00:33:18;;;;;;;5.40;1.70;;;;;;;20.10;72.06;99649.49;1753486;81;25923;-73
2022/09/16 00:35:46;;;;;;;8.78;1.70;;;;;;;20.04;71.67;99641.67;1677981;83;27564;-74
2022/09/16 00:38:12;;;;;;;7.67;1.75;;;;;;;20.04;71.61;99645.77;1746112;81;25802;-74
2022/09/16 00:40:48;;;;;;;10.38;1.92;;;;;;;20.03;71.62;99641.37;1721362;81;25900;-74
2022/09/16 00:43:19;;;;;;;9.28;1.70;;;;;;;20.05;71.83;99640.62;1704551;83;25854;-73
2022/09/16 00:45:59;;;;;;;7.90;1.77;;;;;;;20.06;71.77;99639.56;1696942;83;25714;-73
2022/09/16 00:48:29;;;;;;;11.25;1.70;;;;;;;20.04;71.99;99651.77;1716342;82;27477;-74
2022/09/16 00:51:04;;;;;;;6.80;2.02;;;;;;;20.00;71.88;99654.95;1709357;83;25721;-74
2022/09/16 00:53:45;;;;;;;9.90;1.95;;;;;;;19.99;72.29;99646.45;1692625;84;26139;-74
2022/09/16 00:56:13;;;;;;;9.05;3.08;;;;;;;19.99;72.58;99646.45;1724284;82;25863;-71
2022/09/16 00:58:55;;;;;;;8.38;1.60;;;;;;;19.94;72.60;99650.40;1710558;82;25796;-73
2022/09/16 01:01:22;;;;;;;12.75;2.00;;;;;;;19.91;72.86;99654.93;1731673;82;27446;-74
2022/09/16 01:03:53;;;;;;;3.72;1.77;;;;;;;19.88;72.80;99651.28;1701536;83;25799;-74
2022/09/16 01:06:23;;;;;;;7.10;1.90;;;;;;;19.90;73.19;99645.07;1708979;82;25769;-74
2022/09/16 01:08:50;;;;;;;10.30;1.85;;;;;;;19.88;72.54;99639.00;1716563;82;25765;-75
2022/09/16 01:11:17;;;;;;;4.35;1.57;;;;;;;19.86;73.25;99639.23;1710267;82;25815;-74
2022/09/16 01:13:46;;;;;;;7.22;2.02;;;;;;;19.83;72.96;99637.45;1710685;82;27473;-74
2022/09/16 01:16:30;;;;;;;5.78;1.85;;;;;;;19.85;72.92;99642.20;1708335;82;26531;-74
2022/09/16 01:19:30;;;;;;;6.78;1.65;;;;;;;19.82;72.88;99641.23;1722282;82;26622;-74
2022/09/16 01:22:20;;;;;;;10.08;2.90;;;;;;;19.78;73.31;99652.28;1714610;82;25803;-74
2022/09/16 01:25:16;;;;;;;10.75;1.95;;;;;;;19.76;73.16;99659.34;1729756;82;25778;-74
2022/09/16 01:27:57;;;;;;;9.08;1.80;;;;;;;19.73;73.10;99665.78;1714788;81;27482;-74
2022/09/16 01:30:44;;;;;;;7.60;2.02;;;;;;;19.68;74.40;99663.17;1692607;83;25806;-75
2022/09/16 01:33:46;;;;;;;14.45;2.60;;;;;;;19.57;74.44;99660.34;1718576;82;25831;-74
2022/09/16 01:36:38;;;;;;;7.97;1.75;;;;;;;19.52;74.07;99663.74;1719484;82;25799;-72
2022/09/16 01:39:31;;;;;;;10.03;1.95;;;;;;;19.52;73.75;99670.05;1682786;84;25805;-74
2022/09/16 01:42:13;;;;;;;7.70;2.05;;;;;;;19.53;73.76;99680.42;1739198;81;27500;-75
2022/09/16 01:44:54;;;;;;;4.17;2.10;;;;;;;19.54;73.65;99680.73;1730573;81;25843;-72
2022/09/16 01:47:31;;;;;;;10.85;2.17;;;;;;;19.55;73.62;99683.77;1713734;82;25810;-74
2022/09/16 01:50:23;;;;;;;8.30;2.30;;;;;;;19.58;74.23;99684.70;1714068;82;26583;-74
2022/09/16 01:53:16;;;;;;;10.28;2.30;;;;;;;19.55;73.67;99690.04;1737683;82;25834;-74
2022/09/16 01:55:56;;;;;;;7.40;2.83;;;;;;;19.53;73.65;99689.45;1733577;81;27478;-74
2022/09/16 01:58:46;;;;;;;9.35;1.95;;;;;;;19.57;74.13;99681.66;1739932;81;26127;-72
2022/09/16 02:01:22;;;;;;;8.93;1.98;;;;;;;19.57;73.50;99687.11;1737021;81;25751;-74
2022/09/16 02:03:53;;;;;;;7.90;1.80;;;;;;;19.60;73.02;99698.92;1729159;81;26000;-74
2022/09/16 02:06:23;;;;;;;10.45;2.30;;;;;;;19.63;72.54;99699.03;1730045;81;25782;-73
2022/09/16 02:08:56;;;;;;;8.00;2.20;;;;;;;19.79;69.11;99706.66;1729884;82;27509;-73
2022/09/16 02:11:24;;;;;;;10.23;1.92;;;;;;;20.09;66.79;99705.16;1729238;81;25771;-74
2022/09/16 02:13:59;;;;;;;7.80;1.90;;;;;;;20.37;66.12;99710.64;1708560;83;25758;-74
2022/09/16 02:16:43;;;;;;;8.40;2.33;;;;;;;20.56;64.71;99701.91;1714068;82;25837;-73
2022/09/16 02:19:14;;;;;;;9.33;2.95;;;;;;;20.73;64.23;99707.59;1713321;82;25727;-74
2022/09/16 02:21:41;;;;;;;6.78;2.08;;;;;;;20.88;62.55;99709.42;1691389;84;27546;-72
2022/09/16 02:24:13;;;;;;;8.13;2.17;;;;;;;21.02;62.10;99707.89;1712794;83;25807;-74
2022/09/16 02:26:45;;;;;;;8.83;1.90;;;;;;;21.08;61.54;99707.78;1712918;83;26643;-71
2022/09/16 02:29:20;;;;;;;17.07;2.95;;;;;;;21.15;61.45;99706.87;1688634;83;25872;-73
2022/09/16 02:31:51;;;;;;;9.65;1.92;;;;;;;21.18;61.09;99705.87;1711452;81;26107;-74
2022/09/16 02:34:40;;;;;;;19.87;3.05;;;;;;;21.20;60.87;99701.52;1706047;82;27495;-71
2022/09/16 02:37:21;;;;;;;7.75;2.20;;;;;;;21.17;60.58;99702.83;1714270;80;25752;-73
2022/09/16 02:39:53;;;;;;;10.70;3.02;;;;;;;21.19;60.18;99703.95;1710617;83;26592;-74
2022/09/16 02:42:21;;;;;;;3.62;1.77;;;;;;;21.19;60.43;99703.44;1707552;81;25834;-74
2022/09/16 02:44:47;;;;;;;24.50;2.83;;;;;;;21.17;60.53;99713.77;1710468;83;26535;-74
2022/09/16 02:47:29;;;;;;;11.73;2.37;;;;;;;21.16;60.88;99713.46;1726047;81;27558;-72
2022/09/16 02:50:15;;;;;;;15.05;2.55;;;;;;;21.12;61.07;99716.34;1704857;82;25791;-74
2022/09/16 02:52:48;;;;;;;9.00;2.62;;;;;;;21.09;61.54;99709.99;1709945;81;25847;-74
2022/09/16 02:55:52;;;;;;;9.53;2.37;;;;;;;21.04;62.13;99701.63;1709641;83;26508;-73
2022/09/16 02:58:19;;;;;;;;;;;;;;;20.97;62.36;99704.48;1719058;81;26492;-74
2022/09/16 03:00:50;;;;;;;14.23;2.72;;;;;;;20.94;61.85;99713.13;1718907;81;27547;-73
2022/09/16 03:03:17;;;;;;;6.33;2.10;;;;;;;20.91;61.85;99722.64;1710289;83;25770;-73
2022/09/16 03:06:20;;;;;;;14.47;2.08;;;;;;;20.90;62.21;99726.44;1717006;81;25775;-72
2022/09/16 03:08:49;;;;;;;6.10;2.45;;;;;;;20.87;63.03;99724.15;1721202;81;25874;-73
2022/09/16 03:11:44;;;;;;;10.65;2.65;;;;;;;20.80;63.71;99732.42;1715584;81;25799;-74
2022/09/16 03:14:20;;;;;;;15.23;2.55;;;;;;;20.75;64.28;99732.84;1716813;81;27541;-71
2022/09/16 03:17:07;;;;;;;8.50;2.45;;;;;;;20.67;64.33;99742.13;1709902;81;27196;-73
2022/09/16 03:20:07;;;;;;;11.33;2.70;;;;;;;20.65;64.89;99740.16;1699062;83;25753;-74
2022/09/16 03:23:04;;;;;;;14.68;2.80;;;;;;;20.61;65.22;99747.97;1703036;82;25829;-72
2022/09/16 03:26:06;;;;;;;10.88;2.83;;;;;;;20.60;65.58;99747.67;1648033;85;25748;-74
2022/09/16 03:29:11;;;;;;;11.93;2.40;;;;;;;20.56;65.70;99746.47;1683940;83;28368;-75
2022/09/16 03:32:14;;;;;;;7.97;2.70;;;;;;;20.49;66.21;99745.69;1688009;84;26314;-74
2022/09/16 03:34:51;;;;;;;10.78;1.95;;;;;;;20.44;66.83;99737.34;1689203;84;25835;-73
2022/09/16 03:37:20;;;;;;;12.13;2.92;;;;;;;20.37;67.10;99734.68;1685804;84;26591;-75
2022/09/16 03:39:52;;;;;;;18.48;3.90;;;;;;;20.37;67.30;99737.41;1686666;84;25755;-75
2022/09/16 03:42:20;;;;;;;15.63;2.90;;;;;;;20.33;67.77;99738.39;1680713;83;27483;-74
2022/09/16 03:44:47;;;;;;;28.65;3.02;;;;;;;20.30;68.03;99741.60;1679074;84;25776;-73
2022/09/16 03:47:15;;;;;;;19.62;3.37;;;;;;;20.27;69.48;99748.02;1686209;84;25781;-74
2022/09/16 03:49:42;;;;;;;14.20;2.87;;;;;;;20.18;68.84;99752.41;1688284;84;25846;-74
2022/09/16 03:52:09;;;;;;;12.37;2.70;;;;;;;20.17;69.12;99757.55;1691467;83;25802;-73
2022/09/16 03:54:37;;;;;;;13.88;2.85;;;;;;;20.18;69.06;99752.95;1693463;84;27463;-74
2022/09/16 03:57:05;;;;;;;12.40;3.30;;;;;;;20.19;69.17;99757.35;1683923;84;25763;-74
2022/09/16 03:59:32;;;;;;;18.77;4.55;;;;;;;20.20;69.35;99760.91;1679895;84;25792;-74
2022/09/16 04:02:00;;;;;;;14.80;3.72;;;;;;;20.22;69.41;99766.44;1686847;84;25876;-74
2022/09/16 04:04:27;;;;;;;16.77;3.72;;;;;;;20.22;69.55;99752.78;1692712;83;25805;-73
2022/09/16 04:06:54;;;;;;;15.45;3.52;;;;;;;20.24;69.44;99762.14;1683177;84;27492;-74
2022/09/16 04:09:21;;;;;;;26.82;4.50;;;;;;;20.22;69.59;99759.61;1677352;84;25837;-71
2022/09/16 04:11:48;;;;;;;22.80;3.12;;;;;;;20.20;69.53;99762.27;1685129;83;25904;-72
2022/09/16 04:14:15;;;;;;;21.23;3.25;;;;;;;20.21;69.67;99763.43;1682002;84;25889;-74
2022/09/16 04:16:42;;;;;;;24.07;3.67;;;;;;;20.29;68.94;99762.28;1681560;83;26426;-74
2022/09/16 04:19:12;;;;;;;11.30;2.85;;;;;;;20.38;69.13;99769.67;1693159;84;27474;-74
2022/09/16 04:21:40;;;;;;;20.40;3.92;;;;;;;20.43;68.86;99766.57;1683795;84;25871;-73
2022/09/16 04:24:08;;;;;;;10.98;3.08;;;;;;;20.51;67.87;99770.06;1684913;84;25737;-72
2022/09/16 04:26:34;;;;;;;12.75;3.30;;;;;;;20.60;66.63;99779.63;1681962;84;25974;-74
2022/09/16 04:29:02;;;;;;;12.15;3.15;;;;;;;20.67;65.62;99779.54;1687114;83;25859;-75
2022/09/16 04:31:29;;;;;;;9.88;2.77;;;;;;;20.75;65.50;99782.84;1687050;84;27542;-74
2022/09/16 04:33:56;;;;;;;8.50;2.80;;;;;;;20.85;65.06;99781.48;1677342;84;25981;-75
2022/09/16 04:36:23;;;;;;;14.93;3.42;;;;;;;20.91;64.60;99784.14;1679652;84;25867;-75
2022/09/16 04:38:50;;;;;;;13.95;3.22;;;;;;;20.99;64.43;99790.36;1684316;84;25827;-75
2022/09/16 04:41:21;;;;;;;17.70;3.00;;;;;;;21.01;64.00;99797.27;1683456;84;25793;-75
2022/09/16 04:43:55;;;;;;;19.60;3.02;;;;;;;21.04;63.96;99799.55;1687323;84;27612;-75
2022/09/16 04:46:26;;;;;;;15.20;3.05;;;;;;;21.06;63.48;99802.05;1684574;84;26134;-76
2022/09/16 04:48:54;;;;;;;8.48;3.50;;;;;;;21.03;63.03;99819.75;1691022;84;25699;-75
2022/09/16 04:51:22;;;;;;;10.35;2.70;;;;;;;21.02;63.17;99817.25;1677258;83;25861;-70
2022/09/16 04:53:50;;;;;;;13.95;2.45;;;;;;;21.00;62.62;99823.47;1686082;83;25751;-74
2022/09/16 04:56:22;;;;;;;10.20;2.65;;;;;;;21.01;62.72;99819.14;1650805;85;27468;-73
2022/09/16 04:58:53;;;;;;;8.20;2.45;;;;;;;21.01;62.98;99830.07;1692038;83;25864;-73
2022/09/16 05:01:25;;;;;;;12.05;2.47;;;;;;;20.99;63.00;99837.66;1690745;84;25834;-73
2022/09/16 05:03:54;;;;;;;5.80;2.65;;;;;;;21.00;63.04;99832.50;1677537;84;25795;-73
2022/09/16 05:06:31;;;;;;;6.67;2.25;;;;;;;21.02;63.16;99832.29;1681554;84;25860;-73
2022/09/16 05:09:02;;;;;;;8.98;2.50;;;;;;;21.03;63.35;99839.41;1677681;84;28189;-73
2022/09/16 05:11:34;;;;;;;6.00;2.30;;;;;;;21.03;63.71;99842.14;1678334;84;26010;-73
2022/09/16 05:14:03;;;;;;;7.53;2.22;;;;;;;21.04;63.89;99843.81;1675462;84;26482;-72
2022/09/16 05:16:31;;;;;;;8.10;2.50;;;;;;;21.02;64.16;99841.31;1681079;83;25834;-74
2022/09/16 05:19:00;;;;;;;8.23;2.58;;;;;;;21.02;64.70;99852.80;1675871;84;25813;-74
2022/09/16 05:21:28;;;;;;;12.93;3.12;;;;;;;20.98;64.97;99857.86;1680750;84;27474;-74
2022/09/16 05:23:59;;;;;;;14.28;2.60;;;;;;;20.98;65.39;99853.75;1686030;84;25963;-74
2022/09/16 05:26:30;;;;;;;10.65;2.83;;;;;;;20.90;66.30;99869.09;1677154;84;25908;-74
2022/09/16 05:29:08;;;;;;;13.43;2.40;;;;;;;20.84;66.59;99868.12;1686075;84;26537;-73
2022/09/16 05:31:39;;;;;;;14.68;3.10;;;;;;;20.79;66.92;99870.69;1683755;84;25810;-74
2022/09/16 05:34:13;;;;;;;10.58;3.08;;;;;;;20.72;67.58;99876.72;1688718;84;27438;-73
2022/09/16 05:36:42;;;;;;;9.48;2.58;;;;;;;20.65;67.98;99874.05;1684109;84;25722;-74
2022/09/16 05:39:15;;;;;;;7.50;2.80;;;;;;;20.57;68.79;99872.45;1688622;84;25768;-74
2022/09/16 05:41:45;;;;;;;13.43;2.90;;;;;;;20.54;68.88;99880.23;1683721;83;25793;-73
2022/09/16 05:44:13;;;;;;;12.03;3.25;;;;;;;20.50;69.42;99883.95;1684418;84;25825;-74
2022/09/16 05:46:41;;;;;;;11.00;3.05;;;;;;;20.44;70.00;99886.22;1682712;83;27464;-72
2022/09/16 05:49:09;;;;;;;6.87;3.00;;;;;;;20.39;70.41;99896.45;1686145;84;25767;-73
2022/09/16 05:51:38;;;;;;;7.15;3.17;;;;;;;20.36;71.12;99906.44;1678193;83;25783;-74
2022/09/16 05:54:06;;;;;;;11.80;3.70;;;;;;;20.29;71.76;99901.05;1683776;84;26195;-74
2022/09/16 05:56:33;;;;;;;7.87;4.22;;;;;;;20.27;72.09;99897.70;1688631;83;25779;-75
2022/09/16 05:59:00;;;;;;;10.48;4.17;;;;;;;20.25;72.42;99899.81;1681078;83;27474;-76
2022/09/16 06:01:31;;;;;;;14.85;3.60;;;;;;;20.24;72.62;99895.95;1651921;86;25973;-75
2022/09/16 06:04:01;;;;;;;9.55;3.60;;;;;;;20.26;72.95;99903.39;1649595;85;25808;-76
2022/09/16 06:06:35;;;;;;;11.30;3.40;;;;;;;20.26;73.49;99904.22;1676596;84;25849;-76
2022/09/16 06:09:10;;;;;;;11.30;3.92;;;;;;;20.31;73.31;99909.84;1681009;85;26659;-75
2022/09/16 06:11:41;;;;;;;10.93;4.55;;;;;;;20.37;73.47;99901.84;1680606;85;28182;-75
2022/09/16 06:14:09;;;;;;;11.83;3.67;;;;;;;20.39;73.99;99913.38;1673878;85;25848;-72
2022/09/16 06:16:37;;;;;;;11.08;4.10;;;;;;;20.48;74.41;99938.82;1690505;83;25782;-72
2022/09/16 06:19:09;;;;;;;12.63;3.80;;;;;;;20.53;74.36;99932.69;1725304;81;26521;-75
2022/09/16 06:21:38;;;;;;;10.32;4.17;;;;;;;20.54;74.31;99934.88;1740586;81;25785;-73
2022/09/16 06:24:07;;;;;;;12.53;3.60;;;;;;;20.57;74.19;99939.91;1690348;83;27541;-73
2022/09/16 06:26:37;;;;;;;6.33;2.52;;;;;;;20.63;74.77;99941.23;1708744;82;25825;-73
2022/09/16 06:29:07;;;;;;;10.43;2.25;;;;;;;20.66;74.51;99950.88;1683793;84;25764;-72
2022/09/16 06:31:35;;;;;;;10.10;2.30;;;;;;;20.62;74.19;99953.73;1728806;82;25975;-72
2022/09/16 06:34:04;;;;;;;4.10;1.77;;;;;;;20.59;73.91;99960.48;1710644;82;25810;-74
2022/09/16 06:36:35;;;;;;;9.25;2.67;;;;;;;20.57;74.24;99962.63;1736697;82;27477;-70
2022/09/16 06:39:04;;;;;;;3.22;1.35;;;;;;;20.56;73.84;99959.58;1709298;82;25795;-69
2022/09/16 06:41:33;;;;;;;9.58;1.52;;;;;;;20.57;73.63;99961.77;1706391;83;25629;-68
2022/09/16 06:44:01;;;;;;;3.58;1.90;;;;;;;20.58;73.82;99963.45;1686627;83;25897;-67
2022/09/16 06:46:29;;;;;;;7.22;1.92;;;;;;;20.60;73.72;99970.36;1723631;82;25533;-69
2022/09/16 06:48:57;;;;;;;2.00;1.17;;;;;;;20.70;73.39;99981.31;1715798;82;27648;-70
2022/09/16 06:51:30;;;;;;;9.45;1.65;;;;;;;20.76;73.07;99983.19;1708879;82;25937;-70
2022/09/16 06:54:03;;;;;;;6.70;1.65;;;;;;;20.82;72.79;99982.83;1704759;82;25898;-69
2022/09/16 06:56:34;;;;;;;3.20;1.42;;;;;;;20.89;72.69;99975.39;1715836;82;26456;-70
2022/09/16 06:59:00;;;;;;;4.58;1.40;;;;;;;20.89;72.24;99980.86;1711291;82;25989;-72
2022/09/16 07:01:30;;;;;;;2.25;1.30;;;;;;;20.88;71.85;99990.16;1731278;82;28167;-73
2022/09/16 07:04:04;;;;;;;3.08;1.25;;;;;;;20.95;72.15;99995.84;1720189;82;25800;-75
2022/09/16 07:06:31;;;;;;;4.28;1.60;;;;;;;21.00;71.68;99999.28;1706109;83;25851;-71
2022/09/16 07:08:59;;;;;;;6.35;1.50;;;;;;;20.98;71.52;99997.29;1703484;82;25813;-70
2022/09/16 07:11:26;;;;;;;8.75;1.65;;;;;;;20.92;71.36;100000.42;1703368;82;25819;-72
2022/09/16 07:13:54;;;;;;;7.42;1.80;;;;;;;20.91;71.62;100008.82;1704363;82;27479;-71
2022/09/16 07:16:24;;;;;;;6.78;1.90;;;;;;;20.91;72.22;100001.48;1710173;82;25743;-72
2022/09/16 07:18:57;;;;;;;9.58;1.98;;;;;;;20.89;72.13;100003.59;1707244;82;26401;-71
2022/09/16 07:21:28;;;;;;;5.35;1.82;;;;;;;20.88;71.84;100003.28;1703473;83;26145;-72
2022/09/16 07:23:59;;;;;;;5.72;2.05;;;;;;;20.93;72.54;100005.34;1721538;82;25770;-71
2022/09/16 07:26:29;;;;;;;4.92;2.35;;;;;;;20.94;72.37;100004.28;1697357;82;28082;-71
2022/09/16 07:29:00;;;;;;;9.10;2.10;;;;;;;21.02;72.01;100005.36;1705343;82;25813;-71
2022/09/16 07:31:31;;;;;;;4.70;1.90;;;;;;;21.15;72.40;100012.61;1714893;82;25818;-71
2022/09/16 07:34:00;;;;;;;9.18;1.92;;;;;;;21.30;71.95;100012.77;1696050;82;25910;-71
2022/09/16 07:36:32;;;;;;;4.65;2.02;;;;;;;21.47;72.14;100015.77;1706883;82;25951;-71
2022/09/16 07:38:59;;;;;;;5.90;3.02;;;;;;;21.65;71.23;100016.35;1713449;82;28317;-70
2022/09/16 07:41:31;;;;;;;3.83;1.92;;;;;;;21.71;70.02;100018.16;1704629;82;25912;-71
2022/09/16 07:44:00;;;;;;;5.42;1.40;;;;;;;21.67;68.97;100027.89;1704974;82;25816;-71
2022/09/16 07:46:30;;;;;;;6.65;1.50;;;;;;;21.78;69.05;100030.41;1702168;82;26510;-70
2022/09/16 07:49:00;;;;;;;2.60;1.60;;;;;;;21.95;68.64;100019.66;1704520;82;25999;-70
2022/09/16 07:51:28;;;;;;;3.08;1.72;;;;;;;22.03;66.79;100013.86;1712028;82;28073;-71
2022/09/16 07:54:03;;;;;;;3.37;1.90;;;;;;;21.98;65.50;100021.95;1714126;82;26645;-70
2022/09/16 07:56:34;;;;;;;5.42;2.20;;;;;;;21.95;66.01;100026.51;1726022;82;25853;-72
2022/09/16 07:59:04;;;;;;;4.95;2.00;;;;;;;22.05;66.04;100019.41;1704148;82;25836;-72
2022/09/16 08:01:31;;;;;;;2.17;1.50;;;;;;;22.15;64.90;100022.12;1699249;84;25749;-71
2022/09/16 08:03:59;;;;;;;2.35;1.50;;;;;;;22.20;64.59;100025.84;1707723;82;27472;-70
2022/09/16 08:06:30;;;;;;;5.67;1.87;;;;;;;22.23;64.82;100035.53;1712822;82;25807;-72
2022/09/16 08:08:59;;;;;;;2.45;1.40;;;;;;;22.30;65.08;100044.49;1717118;82;26407;-69
2022/09/16 08:11:29;;;;;;;7.17;1.42;;;;;;;22.24;63.75;100032.25;1714608;82;25713;-71
2022/09/16 08:14:00;;;;;;;3.47;1.57;;;;;;;22.22;63.82;100038.48;1697494;82;25876;-71
2022/09/16 08:16:28;;;;;;;1.25;0.90;;;;;;;22.43;63.78;100048.98;1705675;82;27400;-71
2022/09/16 08:18:57;;;;;;;1.92;0.93;;;;;;;22.74;62.30;100053.89;1703262;83;25809;-71
2022/09/16 08:21:28;;;;;;;1.25;1.00;;;;;;;22.86;61.56;100051.71;1730191;82;25815;-71
2022/09/16 08:23:56;;;;;;;2.20;1.10;;;;;;;22.97;61.50;100057.77;1710248;83;25736;-71
2022/09/16 08:26:24;;;;;;;2.15;1.10;;;;;;;22.87;60.98;100062.44;1710079;83;25800;-71
2022/09/16 08:34:57;;;;;;;1.82;1.02;;;;;;;23.38;61.37;100070.30;1724362;81;25741;-71
2022/09/16 08:37:26;;;;;;;1.87;0.98;;;;;;;23.52;59.57;100076.38;1713372;83;25871;-70
2022/09/16 08:39:53;;;;;;;1.67;1.10;;;;;;;23.65;59.61;100070.63;1712847;83;25769;-71
2022/09/16 08:42:42;;;;;;;9.05;1.27;;;;;;;23.77;57.54;100063.74;1692304;84;27669;-69
2022/09/16 08:45:25;;;;;;;5.65;1.05;;;;;;;23.70;56.81;100063.89;1711976;83;25758;-70
2022/09/16 08:48:13;;;;;;;1.07;0.78;;;;;;;23.63;56.99;100070.03;1707218;83;25821;-72
2022/09/16 08:50:45;;;;;;;2.50;1.10;;;;;;;23.51;57.03;100071.41;1710333;82;26598;-72
2022/09/16 08:53:18;;;;;;;4.75;1.22;;;;;;;23.48;57.31;100066.94;1710466;83;26410;-71
2022/09/16 08:55:49;;;;;;;8.63;1.20;;;;;;;23.84;58.16;100075.98;1709385;82;28310;-70
2022/09/16 08:58:23;;;;;;;1.67;0.90;;;;;;;24.33;55.78;100089.38;1709860;83;25850;-70
2022/09/16 09:00:58;;;;;;;4.65;1.22;;;;;;;24.31;56.13;100099.25;1705500;83;25777;-70
2022/09/16 09:03:41;;;;;;;2.15;1.12;;;;;;;24.30;56.00;100103.59;1710567;83;26428;-70
2022/09/16 09:06:33;;;;;;;1.60;0.80;;;;;;;24.25;55.83;100111.20;1708953;83;25947;-71
2022/09/16 09:09:46;;;;;;;6.60;1.15;;;;;;;23.95;54.62;100119.63;1708861;83;26886;-71
2022/09/16 09:12:30;;;;;;;8.38;1.35;;;;;;;23.82;55.17;100126.19;1708293;83;25769;-71
2022/09/16 09:15:17;;;;;;;2.70;1.27;;;;;;;23.78;55.76;100122.27;1707535;83;25515;-69
2022/09/16 09:17:52;;;;;;;3.77;0.90;;;;;;;23.67;55.86;100118.42;1707901;84;26348;-70
2022/09/16 09:20:46;;;;;;;1.98;1.10;;;;;;;23.80;56.00;100119.56;1704718;83;25769;-69
2022/09/16 09:23:32;;;;;;;18.37;2.12;;;;;;;23.93;54.72;100118.48;1705684;82;27478;-71
2022/09/16 09:26:30;;;;;;;9.05;1.98;;;;;;;24.26;54.06;100114.25;1705109;84;25876;-72
2022/09/16 09:29:36;;;;;;;2.30;1.65;;;;;;;24.58;53.05;100126.17;1703039;84;25745;-71
2022/09/16 09:32:23;;;;;;;1.77;1.25;;;;;;;24.59;52.50;100124.23;1707222;84;26483;-70
2022/09/16 09:35:03;;;;;;;6.17;1.10;;;;;;;24.82;51.69;100121.95;1706898;84;26050;-71
2022/09/16 09:38:00;;;;;;;4.90;1.22;;;;;;;24.83;51.32;100123.62;1676950;84;27507;-70
2022/09/16 09:40:51;;;;;;;2.33;1.37;;;;;;;24.84;51.59;100133.00;1708616;82;25723;-70
2022/09/16 09:43:32;;;;;;;1.72;0.90;;;;;;;24.76;50.77;100134.77;1709026;83;25766;-72
2022/09/16 09:46:29;;;;;;;2.70;0.98;;;;;;;24.75;51.44;100130.91;1708666;82;25860;-72
2022/09/16 09:49:10;;;;;;;2.62;0.90;;;;;;;25.15;51.24;100126.67;1709007;83;25770;-72
2022/09/16 09:51:45;;;;;;;0.98;0.88;;;;;;;25.28;51.00;100132.39;1708724;82;27554;-71
2022/09/16 09:54:32;;;;;;;6.08;1.32;;;;;;;25.29;49.20;100144.22;1708756;82;25823;-72
2022/09/16 09:57:04;;;;;;;3.22;1.10;;;;;;;25.88;48.84;100137.46;1708645;83;25870;-71
2022/09/16 09:59:45;;;;;;;;;;;;;;;26.63;45.16;100132.34;1712126;82;25844;-72
2022/09/16 10:02:17;;;;;;;6.58;0.95;;;;;;;26.90;43.66;100130.73;1730976;82;26269;-71
2022/09/16 10:04:44;;;;;;;4.15;1.05;;;;;;;27.43;43.95;100129.58;1731190;82;27462;-71
2022/09/16 10:07:17;;;;;;;2.15;1.15;;;;;;;28.27;42.85;100129.81;1731265;82;25746;-73
2022/09/16 10:09:52;;;;;;;3.33;0.90;;;;;;;28.35;42.94;100131.20;1731205;82;25750;-72
2022/09/16 10:12:35;;;;;;;4.62;0.90;;;;;;;29.31;41.30;100127.52;1730939;82;25841;-71
2022/09/16 10:15:03;;;;;;;3.92;1.07;;;;;;;30.49;39.36;100116.41;1731434;82;25922;-73
2022/09/16 10:17:32;;;;;;;0.70;0.70;;;;;;;31.30;36.32;100107.28;1731322;81;27419;-73
2022/09/16 10:20:05;;;;;;;3.40;0.80;;;;;;;31.45;36.16;100106.31;1727382;82;25875;-73
2022/09/16 10:22:34;;;;;;;1.55;0.80;;;;;;;32.07;34.03;100118.17;1705773;84;25756;-76
2022/09/16 10:25:06;;;;;;;1.20;0.70;;;;;;;32.32;35.08;100123.17;1705678;84;26576;-73
2022/09/16 10:27:36;;;;;;;1.80;0.82;;;;;;;32.89;33.39;100122.41;1706456;82;25471;-74
2022/09/16 10:30:20;;;;;;;0.72;0.70;;;;;;;33.40;32.08;100110.42;1720870;82;27547;-74
2022/09/16 10:32:58;;;;;;;3.33;0.82;;;;;;;33.69;32.10;100122.47;1710345;82;25807;-73
2022/09/16 10:35:32;;;;;;;0.95;0.70;;;;;;;33.71;33.10;100117.39;1705411;83;25717;-72
2022/09/16 10:38:14;;;;;;;11.78;1.30;;;;;;;34.35;32.07;100128.43;1706566;82;25964;-73
2022/09/16 10:40:59;;;;;;;4.50;0.70;;;;;;;34.99;30.71;100124.20;1712642;83;25721;-73
2022/09/16 10:43:29;;;;;;;1.07;0.50;;;;;;;35.21;30.95;100136.55;1722356;83;27477;-72
2022/09/16 10:45:57;;;;;;;1.22;0.70;;;;;;;34.88;29.12;100129.20;1712570;83;25745;-72
2022/09/16 10:48:28;;;;;;;3.12;0.60;;;;;;;34.19;28.98;100131.56;1722107;83;25870;-73
2022/09/16 10:51:03;;;;;;;1.55;0.90;;;;;;;34.13;30.31;100139.76;1712891;83;26518;-74
2022/09/16 10:53:39;;;;;;;3.10;0.80;;;;;;;34.58;28.27;100129.34;1722532;83;25846;-73
2022/09/16 10:56:17;;;;;;;4.17;1.02;;;;;;;34.64;29.19;100140.09;1712648;83;28184;-74
2022/09/16 10:58:45;;;;;;;1.35;0.80;;;;;;;34.98;28.28;100123.14;1722197;83;25837;-74
2022/09/16 11:01:32;;;;;;;1.02;0.68;;;;;;;34.73;28.59;100131.78;1719793;83;25783;-74
2022/09/16 11:04:14;;;;;;;2.42;1.10;;;;;;;35.00;28.38;100132.85;1718343;83;26411;-74
2022/09/16 11:07:01;;;;;;;1.65;0.90;;;;;;;35.15;27.72;100124.66;1722747;83;25827;-73
2022/09/16 11:09:51;;;;;;;3.05;1.02;;;;;;;35.18;27.96;100123.19;1723070;83;28805;-73
2022/09/16 11:12:38;;;;;;;5.22;1.40;;;;;;;35.56;28.88;100118.02;1722367;83;25781;-73
2022/09/16 11:15:26;;;;;;;1.35;0.90;;;;;;;36.02;27.64;100111.75;1722489;83;25747;-73
2022/09/16 11:18:14;;;;;;;3.05;0.82;;;;;;;35.98;27.71;100100.12;1722673;82;26029;-73
2022/09/16 11:21:08;;;;;;;4.17;0.85;;;;;;;35.99;27.10;100095.59;1721621;83;25513;-74
2022/09/16 11:23:53;;;;;;;2.75;1.10;;;;;;;35.70;26.96;100095.54;1722326;83;27624;-76
2022/09/16 11:26:26;;;;;;;7.12;0.98;;;;;;;35.26;27.52;100098.10;1722546;83;25823;-73
2022/09/16 11:29:08;;;;;;;;;;;;;;;35.10;27.83;100099.62;1724617;83;25526;-73
2022/09/16 11:31:52;;;;;;;1.12;0.70;;;;;;;34.97;28.26;100092.95;1681464;84;25828;-73
2022/09/16 11:34:53;;;;;;;7.53;0.90;;;;;;;34.87;28.98;100097.39;1680193;83;25685;-74
2022/09/16 11:37:52;;;;;;;5.25;1.17;;;;;;;34.85;28.73;100087.91;1681560;85;28250;-74
2022/09/16 11:40:57;;;;;;;4.30;0.93;;;;;;;34.82;28.16;100089.97;1679432;84;25728;-73
2022/09/16 11:44:04;;;;;;;2.25;1.02;;;;;;;34.56;29.22;100088.34;1680164;84;25573;-74
2022/09/16 11:47:00;;;;;;;2.50;0.70;;;;;;;34.62;29.14;100094.05;1679896;85;25815;-73
2022/09/16 11:49:44;;;;;;;1.70;0.60;;;;;;;34.30;28.33;100095.28;1680163;84;25713;-73
2022/09/16 11:52:17;;;;;;;0.78;0.53;;;;;;;34.28;28.62;100092.55;1678765;84;27550;-74
2022/09/16 11:54:58;;;;;;;1.37;0.75;;;;;;;34.54;28.74;100091.45;1679769;84;25668;-75
2022/09/16 11:57:38;;;;;;;1.98;0.80;;;;;;;34.73;28.84;100089.88;1679739;84;25795;-74
2022/09/16 12:00:12;;;;;;;3.17;0.90;;;;;;;35.07;28.76;100092.70;1689273;83;25876;-73
2022/09/16 12:02:53;;;;;;;1.20;0.80;;;;;;;35.39;28.75;100089.38;1713032;83;25800;-72
2022/09/16 12:05:49;;;;;;;3.12;1.30;;;;;;;35.75;28.40;100078.38;1713146;83;28262;-72
2022/09/16 12:08:26;;;;;;;6.78;1.27;;;;;;;36.22;27.61;100075.88;1713353;83;25768;-74
2022/09/16 12:11:19;;;;;;;5.45;0.88;;;;;;;36.13;25.49;100077.27;1712532;83;25804;-73
2022/09/16 12:13:52;;;;;;;6.92;1.12;;;;;;;35.56;26.81;100085.04;1713469;83;25867;-73